sensor_id;sensor_type;location;lat;lon;timestamp;temperature;humidity
37300;DHT22;23184;51.902;12.836;2022-11-22T00:02:24;-1.00;99.90
37300;DHT22;23184;51.902;12.836;2022-11-22T00:04:49;-1.00;99.90
37300;DHT22;23184;51.902;12.836;2022-11-22T00:07:15;-1.00;99.90
37300;DHT22;23184;51.902;12.836;2022-11-22T00:09:40;-1.00;99.90
37300;DHT22;23184;51.902;12.836;2022-11-22T00:12:06;-1.00;99.90
37300;DHT22;23184;51.902;12.836;2022-11-22T00:14:31;-1.00;99.90
37300;DHT22;23184;51.902;12.836;2022-11-22T00:16:57;-1.00;99.90
37300;DHT22;23184;51.902;12.836;2022-11-22T00:19:22;-1.10;99.90
37300;DHT22;23184;51.902;12.836;2022-11-22T00:21:48;-1.10;99.90
37300;DHT22;23184;51.902;12.836;2022-11-22T00:24:14;-1.10;99.90
37300;DHT22;23184;51.902;12.836;2022-11-22T00:26:39;-1.10;99.90
37300;DHT22;23184;51.902;12.836;2022-11-22T00:29:05;-1.10;99.90
37300;DHT22;23184;51.902;12.836;2022-11-22T00:31:31;-1.10;99.90
37300;DHT22;23184;51.902;12.836;2022-11-22T00:33:57;-1.10;99.90
37300;DHT22;23184;51.902;12.836;2022-11-22T00:36:22;-1.10;99.90
37300;DHT22;23184;51.902;12.836;2022-11-22T00:38:48;-1.10;99.90
37300;DHT22;23184;51.902;12.836;2022-11-22T00:41:14;-1.10;99.90
37300;DHT22;23184;51.902;12.836;2022-11-22T00:43:39;-1.10;99.90
37300;DHT22;23184;51.902;12.836;2022-11-22T00:46:05;-1.10;99.90
37300;DHT22;23184;51.902;12.836;2022-11-22T00:48:31;-1.00;99.90
37300;DHT22;23184;51.902;12.836;2022-11-22T00:50:56;-1.00;99.90
37300;DHT22;23184;51.902;12.836;2022-11-22T00:53:22;-1.00;99.90
37300;DHT22;23184;51.902;12.836;2022-11-22T00:55:48;-1.00;99.90
37300;DHT22;23184;51.902;12.836;2022-11-22T00:58:14;-1.00;99.90
37300;DHT22;23184;51.902;12.836;2022-11-22T01:00:40;-0.90;99.90
37300;DHT22;23184;51.902;12.836;2022-11-22T01:03:06;-0.90;99.90
37300;DHT22;23184;51.902;12.836;2022-11-22T01:05:31;-0.90;99.90
37300;DHT22;23184;51.902;12.836;2022-11-22T01:07:57;-0.90;99.90
37300;DHT22;23184;51.902;12.836;2022-11-22T01:10:22;-0.90;99.90
37300;DHT22;23184;51.902;12.836;2022-11-22T01:12:48;-0.90;99.90
37300;DHT22;23184;51.902;12.836;2022-11-22T01:15:14;-0.80;99.90
37300;DHT22;23184;51.902;12.836;2022-11-22T01:17:39;-0.90;99.90
37300;DHT22;23184;51.902;12.836;2022-11-22T01:20:06;-0.80;99.90
37300;DHT22;23184;51.902;12.836;2022-11-22T01:22:31;-0.90;99.90
37300;DHT22;23184;51.902;12.836;2022-11-22T01:24:57;-0.90;99.90
37300;DHT22;23184;51.902;12.836;2022-11-22T01:27:23;-0.90;99.90
37300;DHT22;23184;51.902;12.836;2022-11-22T01:29:48;-0.90;99.90
37300;DHT22;23184;51.902;12.836;2022-11-22T01:32:14;-0.90;99.90
37300;DHT22;23184;51.902;12.836;2022-11-22T01:34:40;-0.90;99.90
37300;DHT22;23184;51.902;12.836;2022-11-22T01:37:05;-0.90;99.90
37300;DHT22;23184;51.902;12.836;2022-11-22T01:39:31;-0.90;99.90
37300;DHT22;23184;51.902;12.836;2022-11-22T01:41:57;-0.90;99.90
37300;DHT22;23184;51.902;12.836;2022-11-22T01:44:28;-0.80;99.90
37300;DHT22;23184;51.902;12.836;2022-11-22T01:47:04;-0.90;99.90
37300;DHT22;23184;51.902;12.836;2022-11-22T01:49:39;-0.80;99.90
37300;DHT22;23184;51.902;12.836;2022-11-22T01:52:12;-0.80;99.90
37300;DHT22;23184;51.902;12.836;2022-11-22T01:54:40;-0.80;99.90
37300;DHT22;23184;51.902;12.836;2022-11-22T01:57:11;-0.70;99.90
37300;DHT22;23184;51.902;12.836;2022-11-22T01:59:42;-0.70;99.90
37300;DHT22;23184;51.902;12.836;2022-11-22T02:02:10;-0.60;99.90
37300;DHT22;23184;51.902;12.836;2022-11-22T02:04:37;-0.60;99.90
37300;DHT22;23184;51.902;12.836;2022-11-22T02:09:39;-0.60;99.90
37300;DHT22;23184;51.902;12.836;2022-11-22T02:12:07;-0.60;99.90
37300;DHT22;23184;51.902;12.836;2022-11-22T02:14:34;-0.60;99.90
37300;DHT22;23184;51.902;12.836;2022-11-22T02:17:01;-0.60;99.90
37300;DHT22;23184;51.902;12.836;2022-11-22T02:22:09;-0.60;99.90
37300;DHT22;23184;51.902;12.836;2022-11-22T02:24:44;-0.60;99.90
37300;DHT22;23184;51.902;12.836;2022-11-22T02:27:10;-0.60;99.90
37300;DHT22;23184;51.902;12.836;2022-11-22T02:29:36;-0.70;99.90
37300;DHT22;23184;51.902;12.836;2022-11-22T02:32:03;-0.60;99.90
37300;DHT22;23184;51.902;12.836;2022-11-22T02:34:28;-0.70;99.90
37300;DHT22;23184;51.902;12.836;2022-11-22T02:36:54;-0.70;99.90
37300;DHT22;23184;51.902;12.836;2022-11-22T02:39:24;-0.70;99.90
37300;DHT22;23184;51.902;12.836;2022-11-22T02:41:50;-0.70;99.90
37300;DHT22;23184;51.902;12.836;2022-11-22T02:44:18;-0.70;99.90
37300;DHT22;23184;51.902;12.836;2022-11-22T02:46:52;-0.70;99.90
37300;DHT22;23184;51.902;12.836;2022-11-22T02:49:18;-0.80;99.90
37300;DHT22;23184;51.902;12.836;2022-11-22T02:51:45;-0.80;99.90
37300;DHT22;23184;51.902;12.836;2022-11-22T02:54:10;-0.80;99.90
37300;DHT22;23184;51.902;12.836;2022-11-22T02:56:36;-0.90;99.90
37300;DHT22;23184;51.902;12.836;2022-11-22T02:59:02;-0.90;99.90
37300;DHT22;23184;51.902;12.836;2022-11-22T03:01:28;-0.90;99.90
37300;DHT22;23184;51.902;12.836;2022-11-22T03:03:54;-0.90;99.90
37300;DHT22;23184;51.902;12.836;2022-11-22T03:06:19;-1.00;99.90
37300;DHT22;23184;51.902;12.836;2022-11-22T03:08:45;-0.90;99.90
37300;DHT22;23184;51.902;12.836;2022-11-22T03:11:13;-0.90;99.90
37300;DHT22;23184;51.902;12.836;2022-11-22T03:13:39;-0.90;99.90
37300;DHT22;23184;51.902;12.836;2022-11-22T03:16:04;-1.00;99.90
37300;DHT22;23184;51.902;12.836;2022-11-22T03:18:32;-1.10;99.90
37300;DHT22;23184;51.902;12.836;2022-11-22T03:21:04;-1.00;99.90
37300;DHT22;23184;51.902;12.836;2022-11-22T03:23:30;-1.00;99.90
37300;DHT22;23184;51.902;12.836;2022-11-22T03:25:56;-1.00;99.90
37300;DHT22;23184;51.902;12.836;2022-11-22T03:28:21;-1.00;99.90
37300;DHT22;23184;51.902;12.836;2022-11-22T03:30:47;-1.10;99.90
37300;DHT22;23184;51.902;12.836;2022-11-22T03:33:12;-1.10;99.90
37300;DHT22;23184;51.902;12.836;2022-11-22T03:35:38;-1.10;99.90
37300;DHT22;23184;51.902;12.836;2022-11-22T03:38:04;-1.10;99.90
37300;DHT22;23184;51.902;12.836;2022-11-22T03:40:30;-1.10;99.90
37300;DHT22;23184;51.902;12.836;2022-11-22T03:43:00;-1.20;99.90
37300;DHT22;23184;51.902;12.836;2022-11-22T03:45:27;-1.10;99.90
37300;DHT22;23184;51.902;12.836;2022-11-22T03:47:52;-1.20;99.90
37300;DHT22;23184;51.902;12.836;2022-11-22T03:50:19;-1.10;99.90
37300;DHT22;23184;51.902;12.836;2022-11-22T03:52:45;-1.10;99.90
37300;DHT22;23184;51.902;12.836;2022-11-22T03:55:10;-1.00;99.90
37300;DHT22;23184;51.902;12.836;2022-11-22T03:57:36;-1.00;99.90
37300;DHT22;23184;51.902;12.836;2022-11-22T04:00:02;-1.00;99.90
37300;DHT22;23184;51.902;12.836;2022-11-22T04:02:28;-1.00;99.90
37300;DHT22;23184;51.902;12.836;2022-11-22T04:04:53;-0.90;99.90
37300;DHT22;23184;51.902;12.836;2022-11-22T04:07:19;-0.90;99.90
37300;DHT22;23184;51.902;12.836;2022-11-22T04:09:44;-0.90;99.90
37300;DHT22;23184;51.902;12.836;2022-11-22T04:12:10;-0.90;99.90
37300;DHT22;23184;51.902;12.836;2022-11-22T04:14:35;-0.90;99.90
37300;DHT22;23184;51.902;12.836;2022-11-22T04:17:19;-0.90;99.90
37300;DHT22;23184;51.902;12.836;2022-11-22T04:20:09;-1.00;99.90
37300;DHT22;23184;51.902;12.836;2022-11-22T04:22:55;-1.00;99.90
37300;DHT22;23184;51.902;12.836;2022-11-22T04:25:22;-1.00;99.90
37300;DHT22;23184;51.902;12.836;2022-11-22T04:27:47;-1.00;99.90
37300;DHT22;23184;51.902;12.836;2022-11-22T04:30:13;-1.00;99.90
37300;DHT22;23184;51.902;12.836;2022-11-22T04:32:38;-1.00;99.90
37300;DHT22;23184;51.902;12.836;2022-11-22T04:35:15;-1.00;99.90
37300;DHT22;23184;51.902;12.836;2022-11-22T04:37:41;-1.00;99.90
37300;DHT22;23184;51.902;12.836;2022-11-22T04:40:07;-1.00;99.90
37300;DHT22;23184;51.902;12.836;2022-11-22T04:42:33;-1.10;99.90
37300;DHT22;23184;51.902;12.836;2022-11-22T04:45:18;-1.10;99.90
37300;DHT22;23184;51.902;12.836;2022-11-22T04:47:43;-1.10;99.90
37300;DHT22;23184;51.902;12.836;2022-11-22T04:50:24;-1.10;99.90
37300;DHT22;23184;51.902;12.836;2022-11-22T04:53:09;-1.10;99.90
37300;DHT22;23184;51.902;12.836;2022-11-22T04:55:34;-1.10;99.90
37300;DHT22;23184;51.902;12.836;2022-11-22T04:58:00;-1.10;99.90
37300;DHT22;23184;51.902;12.836;2022-11-22T05:00:28;-1.10;99.90
37300;DHT22;23184;51.902;12.836;2022-11-22T05:02:54;-1.00;99.90
37300;DHT22;23184;51.902;12.836;2022-11-22T05:05:20;-1.10;99.90
37300;DHT22;23184;51.902;12.836;2022-11-22T05:07:45;-1.10;99.90
37300;DHT22;23184;51.902;12.836;2022-11-22T05:10:11;-1.00;99.90
37300;DHT22;23184;51.902;12.836;2022-11-22T05:12:37;-1.00;99.90
37300;DHT22;23184;51.902;12.836;2022-11-22T05:15:03;-1.00;99.90
37300;DHT22;23184;51.902;12.836;2022-11-22T05:17:28;-1.00;99.90
37300;DHT22;23184;51.902;12.836;2022-11-22T05:19:54;-1.00;99.90
37300;DHT22;23184;51.902;12.836;2022-11-22T05:22:19;-1.00;99.90
37300;DHT22;23184;51.902;12.836;2022-11-22T05:25:05;-1.00;99.90
37300;DHT22;23184;51.902;12.836;2022-11-22T05:27:31;-1.00;99.90
37300;DHT22;23184;51.902;12.836;2022-11-22T05:29:56;-1.00;99.90
37300;DHT22;23184;51.902;12.836;2022-11-22T05:32:22;-1.00;99.90
37300;DHT22;23184;51.902;12.836;2022-11-22T05:34:47;-1.00;99.90
37300;DHT22;23184;51.902;12.836;2022-11-22T05:37:13;-1.00;99.90
37300;DHT22;23184;51.902;12.836;2022-11-22T05:39:38;-1.00;99.90
37300;DHT22;23184;51.902;12.836;2022-11-22T05:42:04;-1.00;99.90
37300;DHT22;23184;51.902;12.836;2022-11-22T05:44:30;-1.00;99.90
37300;DHT22;23184;51.902;12.836;2022-11-22T05:46:56;-1.00;99.90
37300;DHT22;23184;51.902;12.836;2022-11-22T05:49:21;-1.00;99.90
37300;DHT22;23184;51.902;12.836;2022-11-22T05:51:47;-0.90;99.90
37300;DHT22;23184;51.902;12.836;2022-11-22T05:54:12;-0.90;99.90
37300;DHT22;23184;51.902;12.836;2022-11-22T05:56:38;-0.90;99.90
37300;DHT22;23184;51.902;12.836;2022-11-22T05:59:03;-0.90;99.90
37300;DHT22;23184;51.902;12.836;2022-11-22T06:01:29;-0.90;99.90
37300;DHT22;23184;51.902;12.836;2022-11-22T06:03:54;-0.90;99.90
37300;DHT22;23184;51.902;12.836;2022-11-22T06:06:20;-0.90;99.90
37300;DHT22;23184;51.902;12.836;2022-11-22T06:08:46;-0.80;99.90
37300;DHT22;23184;51.902;12.836;2022-11-22T06:11:18;-0.80;99.90
37300;DHT22;23184;51.902;12.836;2022-11-22T06:13:45;-0.80;99.90
37300;DHT22;23184;51.902;12.836;2022-11-22T06:16:11;-0.90;99.90
37300;DHT22;23184;51.902;12.836;2022-11-22T06:18:37;-0.80;99.90
37300;DHT22;23184;51.902;12.836;2022-11-22T06:21:06;-0.80;99.90
37300;DHT22;23184;51.902;12.836;2022-11-22T06:23:32;-0.80;99.90
37300;DHT22;23184;51.902;12.836;2022-11-22T06:25:58;-0.80;99.90
37300;DHT22;23184;51.902;12.836;2022-11-22T06:28:26;-0.80;99.90
37300;DHT22;23184;51.902;12.836;2022-11-22T06:30:51;-0.80;99.90
37300;DHT22;23184;51.902;12.836;2022-11-22T06:33:17;-0.80;99.90
37300;DHT22;23184;51.902;12.836;2022-11-22T06:35:42;-0.80;99.90
37300;DHT22;23184;51.902;12.836;2022-11-22T06:38:08;-0.80;99.90
37300;DHT22;23184;51.902;12.836;2022-11-22T06:40:33;-0.80;99.90
37300;DHT22;23184;51.902;12.836;2022-11-22T06:42:59;-0.70;99.90
37300;DHT22;23184;51.902;12.836;2022-11-22T06:45:24;-0.70;99.90
37300;DHT22;23184;51.902;12.836;2022-11-22T06:47:50;-0.70;99.90
37300;DHT22;23184;51.902;12.836;2022-11-22T06:50:16;-0.60;99.90
37300;DHT22;23184;51.902;12.836;2022-11-22T06:52:41;-0.60;99.90
37300;DHT22;23184;51.902;12.836;2022-11-22T06:55:07;-0.60;99.90
37300;DHT22;23184;51.902;12.836;2022-11-22T06:57:32;-0.60;99.90
37300;DHT22;23184;51.902;12.836;2022-11-22T06:59:58;-0.60;99.90
37300;DHT22;23184;51.902;12.836;2022-11-22T07:02:23;-0.60;99.90
37300;DHT22;23184;51.902;12.836;2022-11-22T07:04:49;-0.60;99.90
37300;DHT22;23184;51.902;12.836;2022-11-22T07:07:14;-0.50;99.90
37300;DHT22;23184;51.902;12.836;2022-11-22T07:09:40;-0.50;99.90
37300;DHT22;23184;51.902;12.836;2022-11-22T07:12:05;-0.50;99.90
37300;DHT22;23184;51.902;12.836;2022-11-22T07:14:31;-0.50;99.90
37300;DHT22;23184;51.902;12.836;2022-11-22T07:16:56;-0.50;99.90
37300;DHT22;23184;51.902;12.836;2022-11-22T07:19:22;-0.50;99.90
37300;DHT22;23184;51.902;12.836;2022-11-22T07:21:47;-0.40;99.90
37300;DHT22;23184;51.902;12.836;2022-11-22T07:24:14;-0.40;99.90
37300;DHT22;23184;51.902;12.836;2022-11-22T07:26:39;-0.40;99.90
37300;DHT22;23184;51.902;12.836;2022-11-22T07:29:05;-0.30;99.90
37300;DHT22;23184;51.902;12.836;2022-11-22T07:31:31;-0.30;99.90
37300;DHT22;23184;51.902;12.836;2022-11-22T07:33:57;-0.20;99.90
37300;DHT22;23184;51.902;12.836;2022-11-22T07:36:22;-0.20;99.90
37300;DHT22;23184;51.902;12.836;2022-11-22T07:38:49;-0.20;99.90
37300;DHT22;23184;51.902;12.836;2022-11-22T07:41:16;-0.20;99.90
37300;DHT22;23184;51.902;12.836;2022-11-22T07:43:41;-0.10;99.90
37300;DHT22;23184;51.902;12.836;2022-11-22T07:46:20;-0.10;99.90
37300;DHT22;23184;51.902;12.836;2022-11-22T07:48:47;-0.10;99.90
37300;DHT22;23184;51.902;12.836;2022-11-22T07:51:14;-0.10;99.90
37300;DHT22;23184;51.902;12.836;2022-11-22T07:53:39;-0.10;99.90
37300;DHT22;23184;51.902;12.836;2022-11-22T07:56:05;-0.10;99.90
37300;DHT22;23184;51.902;12.836;2022-11-22T07:58:32;0.00;99.90
37300;DHT22;23184;51.902;12.836;2022-11-22T08:01:10;0.00;99.90
37300;DHT22;23184;51.902;12.836;2022-11-22T08:03:37;0.00;99.90
37300;DHT22;23184;51.902;12.836;2022-11-22T08:06:04;0.00;99.90
37300;DHT22;23184;51.902;12.836;2022-11-22T08:08:30;0.00;99.90
37300;DHT22;23184;51.902;12.836;2022-11-22T08:10:55;0.10;99.90
37300;DHT22;23184;51.902;12.836;2022-11-22T08:13:21;0.10;99.90
37300;DHT22;23184;51.902;12.836;2022-11-22T08:15:47;0.20;99.90
37300;DHT22;23184;51.902;12.836;2022-11-22T08:18:14;0.20;99.90
37300;DHT22;23184;51.902;12.836;2022-11-22T08:20:39;0.20;99.90
37300;DHT22;23184;51.902;12.836;2022-11-22T08:23:05;0.20;99.90
37300;DHT22;23184;51.902;12.836;2022-11-22T08:25:31;0.20;99.90
37300;DHT22;23184;51.902;12.836;2022-11-22T08:27:56;0.20;99.90
37300;DHT22;23184;51.902;12.836;2022-11-22T08:30:22;0.20;99.90
37300;DHT22;23184;51.902;12.836;2022-11-22T08:32:47;0.20;99.90
37300;DHT22;23184;51.902;12.836;2022-11-22T08:35:13;0.30;99.90
37300;DHT22;23184;51.902;12.836;2022-11-22T08:37:39;0.30;99.90
37300;DHT22;23184;51.902;12.836;2022-11-22T08:40:05;0.40;99.90
37300;DHT22;23184;51.902;12.836;2022-11-22T08:42:31;0.50;99.90
37300;DHT22;23184;51.902;12.836;2022-11-22T08:44:56;0.50;99.90
37300;DHT22;23184;51.902;12.836;2022-11-22T08:47:22;0.60;99.90
37300;DHT22;23184;51.902;12.836;2022-11-22T08:49:47;0.60;99.90
37300;DHT22;23184;51.902;12.836;2022-11-22T08:52:13;0.70;99.90
37300;DHT22;23184;51.902;12.836;2022-11-22T08:54:39;0.70;99.90
37300;DHT22;23184;51.902;12.836;2022-11-22T08:57:04;0.70;99.90
37300;DHT22;23184;51.902;12.836;2022-11-22T08:59:30;0.80;99.90
37300;DHT22;23184;51.902;12.836;2022-11-22T09:01:55;0.80;99.90
37300;DHT22;23184;51.902;12.836;2022-11-22T09:04:21;0.70;99.90
37300;DHT22;23184;51.902;12.836;2022-11-22T09:06:47;0.70;99.90
37300;DHT22;23184;51.902;12.836;2022-11-22T09:09:12;0.80;99.90
37300;DHT22;23184;51.902;12.836;2022-11-22T09:11:38;0.80;99.90
37300;DHT22;23184;51.902;12.836;2022-11-22T09:14:03;0.70;99.90
37300;DHT22;23184;51.902;12.836;2022-11-22T09:16:29;0.80;99.90
37300;DHT22;23184;51.902;12.836;2022-11-22T09:18:55;0.80;99.90
37300;DHT22;23184;51.902;12.836;2022-11-22T09:21:21;0.90;99.90
37300;DHT22;23184;51.902;12.836;2022-11-22T09:23:48;0.80;99.90
37300;DHT22;23184;51.902;12.836;2022-11-22T09:26:17;0.80;99.90
37300;DHT22;23184;51.902;12.836;2022-11-22T09:28:43;0.80;99.90
37300;DHT22;23184;51.902;12.836;2022-11-22T09:31:14;0.90;99.90
37300;DHT22;23184;51.902;12.836;2022-11-22T09:33:41;0.90;99.90
37300;DHT22;23184;51.902;12.836;2022-11-22T09:36:14;0.90;99.90
37300;DHT22;23184;51.902;12.836;2022-11-22T09:38:40;1.00;99.90
37300;DHT22;23184;51.902;12.836;2022-11-22T09:44:05;1.00;99.90
37300;DHT22;23184;51.902;12.836;2022-11-22T09:52:08;1.10;99.90
37300;DHT22;23184;51.902;12.836;2022-11-22T09:54:53;1.30;99.90
37300;DHT22;23184;51.902;12.836;2022-11-22T09:57:40;1.30;99.90
37300;DHT22;23184;51.902;12.836;2022-11-22T10:02:51;1.30;99.90
37300;DHT22;23184;51.902;12.836;2022-11-22T10:05:28;1.30;99.90
37300;DHT22;23184;51.902;12.836;2022-11-22T10:08:28;1.40;99.90
37300;DHT22;23184;51.902;12.836;2022-11-22T10:10:55;1.30;99.90
37300;DHT22;23184;51.902;12.836;2022-11-22T10:13:55;1.40;99.90
37300;DHT22;23184;51.902;12.836;2022-11-22T10:16:31;1.50;99.90
37300;DHT22;23184;51.902;12.836;2022-11-22T10:19:26;1.50;99.90
37300;DHT22;23184;51.902;12.836;2022-11-22T10:21:54;1.50;99.90
37300;DHT22;23184;51.902;12.836;2022-11-22T10:24:19;1.50;99.90
37300;DHT22;23184;51.902;12.836;2022-11-22T10:26:45;1.70;99.90
37300;DHT22;23184;51.902;12.836;2022-11-22T10:35:24;1.90;99.90
37300;DHT22;23184;51.902;12.836;2022-11-22T10:46:40;2.10;99.90
37300;DHT22;23184;51.902;12.836;2022-11-22T10:49:31;2.10;99.90
37300;DHT22;23184;51.902;12.836;2022-11-22T10:52:49;2.10;99.90
37300;DHT22;23184;51.902;12.836;2022-11-22T10:55:47;2.20;99.90
37300;DHT22;23184;51.902;12.836;2022-11-22T10:58:34;2.20;99.90
37300;DHT22;23184;51.902;12.836;2022-11-22T11:04:02;2.40;99.90
37300;DHT22;23184;51.902;12.836;2022-11-22T11:06:38;2.40;99.90
37300;DHT22;23184;51.902;12.836;2022-11-22T11:09:14;2.40;99.90
37300;DHT22;23184;51.902;12.836;2022-11-22T11:11:44;2.40;99.90
37300;DHT22;23184;51.902;12.836;2022-11-22T11:16:48;2.40;99.90
37300;DHT22;23184;51.902;12.836;2022-11-22T11:19:21;2.60;99.90
37300;DHT22;23184;51.902;12.836;2022-11-22T11:21:57;2.60;99.90
37300;DHT22;23184;51.902;12.836;2022-11-22T11:24:27;2.70;99.90
37300;DHT22;23184;51.902;12.836;2022-11-22T11:26:54;2.80;99.90
37300;DHT22;23184;51.902;12.836;2022-11-22T11:31:50;2.80;99.90
37300;DHT22;23184;51.902;12.836;2022-11-22T11:34:29;2.90;99.90
37300;DHT22;23184;51.902;12.836;2022-11-22T11:36:58;2.90;99.90
37300;DHT22;23184;51.902;12.836;2022-11-22T11:39:28;2.90;99.90
37300;DHT22;23184;51.902;12.836;2022-11-22T11:41:54;2.90;99.90
37300;DHT22;23184;51.902;12.836;2022-11-22T11:44:32;2.90;99.90
37300;DHT22;23184;51.902;12.836;2022-11-22T11:47:01;2.90;99.90
37300;DHT22;23184;51.902;12.836;2022-11-22T11:49:29;2.90;99.90
37300;DHT22;23184;51.902;12.836;2022-11-22T11:51:57;2.90;99.90
37300;DHT22;23184;51.902;12.836;2022-11-22T11:54:41;2.90;99.90
37300;DHT22;23184;51.902;12.836;2022-11-22T11:57:18;2.80;99.90
37300;DHT22;23184;51.902;12.836;2022-11-22T11:59:45;2.80;99.90
37300;DHT22;23184;51.902;12.836;2022-11-22T12:04:52;2.90;99.90
37300;DHT22;23184;51.902;12.836;2022-11-22T12:07:22;2.90;99.90
37300;DHT22;23184;51.902;12.836;2022-11-22T12:09:50;3.00;99.90
37300;DHT22;23184;51.902;12.836;2022-11-22T12:15:06;3.10;99.90
37300;DHT22;23184;51.902;12.836;2022-11-22T12:20:45;3.30;99.90
37300;DHT22;23184;51.902;12.836;2022-11-22T12:26:05;3.30;99.90
37300;DHT22;23184;51.902;12.836;2022-11-22T12:28:31;3.40;99.90
37300;DHT22;23184;51.902;12.836;2022-11-22T12:31:16;3.40;99.90
37300;DHT22;23184;51.902;12.836;2022-11-22T12:33:46;3.40;99.90
37300;DHT22;23184;51.902;12.836;2022-11-22T12:36:21;3.40;99.90
37300;DHT22;23184;51.902;12.836;2022-11-22T12:38:51;3.40;99.90
37300;DHT22;23184;51.902;12.836;2022-11-22T12:41:19;3.40;99.90
37300;DHT22;23184;51.902;12.836;2022-11-22T12:44:01;3.40;99.90
37300;DHT22;23184;51.902;12.836;2022-11-22T12:46:36;3.40;99.90
37300;DHT22;23184;51.902;12.836;2022-11-22T12:54:01;3.40;99.90
37300;DHT22;23184;51.902;12.836;2022-11-22T12:56:40;3.40;99.90
37300;DHT22;23184;51.902;12.836;2022-11-22T13:02:25;3.40;99.90
37300;DHT22;23184;51.902;12.836;2022-11-22T13:05:14;3.40;99.90
37300;DHT22;23184;51.902;12.836;2022-11-22T13:10:19;3.50;99.90
37300;DHT22;23184;51.902;12.836;2022-11-22T13:12:47;3.50;99.90
37300;DHT22;23184;51.902;12.836;2022-11-22T13:15:18;3.60;99.90
37300;DHT22;23184;51.902;12.836;2022-11-22T13:17:46;3.60;99.90
37300;DHT22;23184;51.902;12.836;2022-11-22T13:20:35;3.50;99.90
37300;DHT22;23184;51.902;12.836;2022-11-22T13:23:08;3.60;99.90
37300;DHT22;23184;51.902;12.836;2022-11-22T13:28:25;3.50;99.90
37300;DHT22;23184;51.902;12.836;2022-11-22T13:33:41;3.50;99.90
37300;DHT22;23184;51.902;12.836;2022-11-22T13:38:56;3.50;99.90
37300;DHT22;23184;51.902;12.836;2022-11-22T13:44:47;3.50;99.90
37300;DHT22;23184;51.902;12.836;2022-11-22T13:49:42;3.40;99.90
37300;DHT22;23184;51.902;12.836;2022-11-22T13:57:37;3.30;99.90
37300;DHT22;23184;51.902;12.836;2022-11-22T14:02:49;3.30;99.90
37300;DHT22;23184;51.902;12.836;2022-11-22T14:07:56;3.20;99.90
37300;DHT22;23184;51.902;12.836;2022-11-22T14:12:57;3.30;99.90
37300;DHT22;23184;51.902;12.836;2022-11-22T14:21:41;3.30;99.90
37300;DHT22;23184;51.902;12.836;2022-11-22T14:24:35;3.30;99.90
37300;DHT22;23184;51.902;12.836;2022-11-22T14:32:54;3.30;99.90
37300;DHT22;23184;51.902;12.836;2022-11-22T14:35:36;3.30;99.90
37300;DHT22;23184;51.902;12.836;2022-11-22T14:38:34;3.20;99.90
37300;DHT22;23184;51.902;12.836;2022-11-22T14:43:52;3.20;99.90
37300;DHT22;23184;51.902;12.836;2022-11-22T14:46:20;3.20;99.90
37300;DHT22;23184;51.902;12.836;2022-11-22T14:49:18;3.20;99.90
37300;DHT22;23184;51.902;12.836;2022-11-22T14:51:40;3.10;99.90
37300;DHT22;23184;51.902;12.836;2022-11-22T14:54:24;3.20;99.90
37300;DHT22;23184;51.902;12.836;2022-11-22T14:56:52;3.20;99.90
37300;DHT22;23184;51.902;12.836;2022-11-22T15:08:29;3.20;99.90
37300;DHT22;23184;51.902;12.836;2022-11-22T15:16:38;3.10;99.90
37300;DHT22;23184;51.902;12.836;2022-11-22T15:19:10;3.10;99.90
37300;DHT22;23184;51.902;12.836;2022-11-22T15:22:08;3.00;99.90
37300;DHT22;23184;51.902;12.836;2022-11-22T15:24:36;3.00;99.90
37300;DHT22;23184;51.902;12.836;2022-11-22T15:27:16;3.10;99.90
37300;DHT22;23184;51.902;12.836;2022-11-22T15:29:42;3.10;99.90
37300;DHT22;23184;51.902;12.836;2022-11-22T15:32:08;3.10;99.90
37300;DHT22;23184;51.902;12.836;2022-11-22T15:34:34;3.10;99.90
37300;DHT22;23184;51.902;12.836;2022-11-22T15:39:53;3.10;99.90
37300;DHT22;23184;51.902;12.836;2022-11-22T15:42:19;3.10;99.90
37300;DHT22;23184;51.902;12.836;2022-11-22T15:44:46;3.10;99.90
37300;DHT22;23184;51.902;12.836;2022-11-22T15:47:16;3.10;99.90
37300;DHT22;23184;51.902;12.836;2022-11-22T15:49:43;3.10;99.90
37300;DHT22;23184;51.902;12.836;2022-11-22T15:52:24;3.10;99.90
37300;DHT22;23184;51.902;12.836;2022-11-22T15:54:54;3.10;99.90
37300;DHT22;23184;51.902;12.836;2022-11-22T15:57:35;3.10;99.90
37300;DHT22;23184;51.902;12.836;2022-11-22T16:00:07;3.10;99.90
37300;DHT22;23184;51.902;12.836;2022-11-22T16:02:33;3.10;99.90
37300;DHT22;23184;51.902;12.836;2022-11-22T16:05:07;3.00;99.90
37300;DHT22;23184;51.902;12.836;2022-11-22T16:07:36;3.00;99.90
37300;DHT22;23184;51.902;12.836;2022-11-22T16:10:06;3.10;99.90
37300;DHT22;23184;51.902;12.836;2022-11-22T16:12:36;3.00;99.90
37300;DHT22;23184;51.902;12.836;2022-11-22T16:15:31;3.00;99.90
37300;DHT22;23184;51.902;12.836;2022-11-22T16:20:37;2.90;99.90
37300;DHT22;23184;51.902;12.836;2022-11-22T16:25:48;2.90;99.90
37300;DHT22;23184;51.902;12.836;2022-11-22T16:28:26;2.90;99.90
37300;DHT22;23184;51.902;12.836;2022-11-22T16:30:58;2.90;99.90
37300;DHT22;23184;51.902;12.836;2022-11-22T16:33:24;2.90;99.90
37300;DHT22;23184;51.902;12.836;2022-11-22T16:35:58;2.80;99.90
37300;DHT22;23184;51.902;12.836;2022-11-22T16:38:24;2.90;99.90
37300;DHT22;23184;51.902;12.836;2022-11-22T16:40:50;2.80;99.90
37300;DHT22;23184;51.902;12.836;2022-11-22T16:43:19;2.80;99.90
37300;DHT22;23184;51.902;12.836;2022-11-22T16:45:44;2.80;99.90
37300;DHT22;23184;51.902;12.836;2022-11-22T16:48:16;2.80;99.90
37300;DHT22;23184;51.902;12.836;2022-11-22T16:50:44;2.80;99.90
37300;DHT22;23184;51.902;12.836;2022-11-22T16:53:13;2.80;99.90
37300;DHT22;23184;51.902;12.836;2022-11-22T16:55:39;2.80;99.90
37300;DHT22;23184;51.902;12.836;2022-11-22T16:58:23;2.90;99.90
37300;DHT22;23184;51.902;12.836;2022-11-22T17:00:49;2.80;99.90
37300;DHT22;23184;51.902;12.836;2022-11-22T17:03:20;2.80;99.90
37300;DHT22;23184;51.902;12.836;2022-11-22T17:05:47;2.80;99.90
37300;DHT22;23184;51.902;12.836;2022-11-22T17:08:15;2.80;99.90
37300;DHT22;23184;51.902;12.836;2022-11-22T17:10:44;2.80;99.90
37300;DHT22;23184;51.902;12.836;2022-11-22T17:13:24;2.80;99.90
37300;DHT22;23184;51.902;12.836;2022-11-22T17:15:51;2.80;99.90
37300;DHT22;23184;51.902;12.836;2022-11-22T17:18:17;2.80;99.90
37300;DHT22;23184;51.902;12.836;2022-11-22T17:20:42;2.80;99.90
37300;DHT22;23184;51.902;12.836;2022-11-22T17:23:15;2.80;99.90
37300;DHT22;23184;51.902;12.836;2022-11-22T17:25:41;2.80;99.90
37300;DHT22;23184;51.902;12.836;2022-11-22T17:28:07;2.70;99.90
37300;DHT22;23184;51.902;12.836;2022-11-22T17:30:32;2.80;99.90
37300;DHT22;23184;51.902;12.836;2022-11-22T17:32:58;2.80;99.90
37300;DHT22;23184;51.902;12.836;2022-11-22T17:35:23;2.70;99.90
37300;DHT22;23184;51.902;12.836;2022-11-22T17:37:52;2.70;99.90
37300;DHT22;23184;51.902;12.836;2022-11-22T17:40:19;2.70;99.90
37300;DHT22;23184;51.902;12.836;2022-11-22T17:42:44;2.80;99.90